CheckWX is a tool to help pilots better visualize weather data.  It is not intended as a substitute for an official pre-flight weather briefing.

02:11:21 UTC

DAUK METAR
Touggourt Sidi Madhi Airport
Touggourt, Algeria
Current

11 mins ago

DAUK 180200Z 01006KT CAVOK 08/01 Q1025
Observed
Feb-18 @ 02:00 UTC
Wind
  • 010° at 6 KTS
Visibility
10,000+ meters
Flight Rules
VFR
Cloud Levels
  • Clear skies
Temperature
C / 46°F
Dewpoint
C / 34°F
Humidity
62%
Altimeter
30.27" Hg
Pressure
1024.92 hPa
Previous

1 hour ago

DAUK 180100Z 02006KT CAVOK 09/02 Q1026
Observed
Feb-18 @ 01:00 UTC
Wind
  • 020° at 6 KTS
Visibility
10,000+ meters
Flight Rules
VFR
Cloud Levels
  • Clear skies
Temperature
C / 48°F
Dewpoint
C / 36°F
Humidity
62%
Altimeter
30.3" Hg
Pressure
1025.92 hPa
Previous

2 hours ago

DAUK 180000Z 02005KT CAVOK 09/02 Q1027
Observed
Feb-18 @ 00:00 UTC
Wind
  • 020° at 5 KTS
Visibility
10,000+ meters
Flight Rules
VFR
Cloud Levels
  • Clear skies
Temperature
C / 48°F
Dewpoint
C / 36°F
Humidity
62%
Altimeter
30.32" Hg
Pressure
1026.92 hPa